Time;durP1;ratioP1;P1;durP2;ratioP2;P2;SDS_P1;SDS_P2;PMS_P1;PMS_P2;Temp;Humidity;BMP_temperature;BMP_pressure;BME280_temperature;BME280_humidity;BME280_pressure;Samples;Min_cycle;Max_cycle;Signal;HPM_P1;HPM_P2
2022/07/07 00:00:23;;;;;;;3.17;1.47;;;;;;;;;;4996875;28;20237;-35
2022/07/07 00:02:50;;;;;;;2.63;1.20;;;;;;;;;;5012340;28;20220;-33
2022/07/07 00:05:19;;;;;;;1.20;1.20;;;;;;;;;;5004189;28;20237;-35
2022/07/07 00:07:46;;;;;;;2.00;1.37;;;;;;;;;;5004792;28;20221;-34
2022/07/07 00:10:13;;;;;;;1.47;1.30;;;;;;;;;;5000703;28;20217;-35
2022/07/07 00:12:40;;;;;;;2.40;1.33;;;;;;;;;;5000684;28;20206;-34
2022/07/07 00:15:08;;;;;;;1.13;1.10;;;;;;;;;;4999337;28;20219;-32
2022/07/07 00:17:36;;;;;;;3.73;1.47;;;;;;;;;;5003419;28;20226;-33
2022/07/07 00:20:03;;;;;;;1.40;1.30;;;;;;;;;;5002010;28;20233;-33
2022/07/07 00:22:31;;;;;;;1.20;1.20;;;;;;;;;;5000251;28;20219;-34
2022/07/07 00:24:58;;;;;;;1.30;1.20;;;;;;;;;;5003010;28;20213;-34
2022/07/07 00:27:26;;;;;;;1.73;1.30;;;;;;;;;;5005770;28;20228;-33
2022/07/07 00:29:53;;;;;;;1.87;1.30;;;;;;;;;;4999808;28;20264;-31
2022/07/07 00:32:20;;;;;;;2.47;1.20;;;;;;;;;;5003991;28;20209;-32
2022/07/07 00:34:47;;;;;;;1.83;1.07;;;;;;;;;;5007612;28;20206;-33
2022/07/07 00:37:14;;;;;;;1.10;1.10;;;;;;;;;;5005837;28;20249;-32
2022/07/07 00:39:43;;;;;;;1.87;1.27;;;;;;;;;;5006872;28;20222;-32
2022/07/07 00:42:14;;;;;;;3.50;1.30;;;;;;;;;;5000159;28;20214;-34
2022/07/07 00:44:41;;;;;;;1.37;1.27;;;;;;;;;;5007554;28;20259;-36
2022/07/07 00:47:08;;;;;;;2.00;1.47;;;;;;;;;;5008728;28;20243;-37
2022/07/07 00:49:38;;;;;;;3.77;1.30;;;;;;;;;;4999308;28;20204;-31
2022/07/07 00:52:06;;;;;;;1.40;1.40;;;;;;;;;;5003099;28;20217;-34
2022/07/07 00:54:33;;;;;;;1.80;1.27;;;;;;;;;;4995758;28;20209;-37
2022/07/07 00:57:01;;;;;;;1.83;1.30;;;;;;;;;;4994043;28;20229;-32
2022/07/07 00:59:29;;;;;;;1.30;1.20;;;;;;;;;;4994471;28;20231;-36
2022/07/07 01:01:57;;;;;;;1.47;1.30;;;;;;;;;;4998394;28;20210;-32
2022/07/07 01:04:24;;;;;;;1.63;1.53;;;;;;;;;;4991183;28;20305;-31
2022/07/07 01:06:51;;;;;;;2.10;1.60;;;;;;;;;;4996868;28;20715;-34
2022/07/07 01:09:18;;;;;;;1.37;1.30;;;;;;;;;;4998623;28;20211;-33
2022/07/07 01:11:47;;;;;;;3.07;1.83;;;;;;;;;;5007245;28;20209;-37
2022/07/07 01:14:15;;;;;;;2.50;1.30;;;;;;;;;;5000064;28;20209;-36
2022/07/07 01:16:42;;;;;;;3.47;1.53;;;;;;;;;;5002180;28;20225;-32
2022/07/07 01:19:10;;;;;;;1.73;1.30;;;;;;;;;;4993829;28;20205;-33
2022/07/07 01:21:45;;;;;;;1.63;1.20;;;;;;;;;;4996620;28;20210;-33
2022/07/07 01:24:13;;;;;;;2.07;1.30;;;;;;;;;;5000348;28;20223;-36
2022/07/07 01:26:40;;;;;;;1.97;1.30;;;;;;;;;;5005952;28;20235;-32
2022/07/07 01:29:07;;;;;;;1.50;1.40;;;;;;;;;;4997258;28;20219;-35
2022/07/07 01:31:35;;;;;;;2.03;1.30;;;;;;;;;;5004725;28;20221;-33
2022/07/07 01:34:02;;;;;;;2.87;1.20;;;;;;;;;;4994531;28;20425;-33
2022/07/07 01:36:29;;;;;;;1.50;1.40;;;;;;;;;;4992747;28;20248;-36
2022/07/07 01:38:56;;;;;;;6.73;1.40;;;;;;;;;;4994253;28;20214;-31
2022/07/07 01:41:24;;;;;;;1.40;1.30;;;;;;;;;;5010776;28;20235;-35
2022/07/07 01:43:51;;;;;;;3.10;1.37;;;;;;;;;;4999800;28;20220;-34
2022/07/07 01:46:19;;;;;;;2.70;1.30;;;;;;;;;;4998518;28;20317;-34
2022/07/07 01:48:46;;;;;;;2.23;1.47;;;;;;;;;;4995317;28;20219;-33
2022/07/07 01:51:13;;;;;;;1.93;1.23;;;;;;;;;;4994778;28;20210;-35
2022/07/07 01:53:40;;;;;;;1.30;1.20;;;;;;;;;;4990717;28;20214;-32
2022/07/07 01:56:08;;;;;;;2.17;1.20;;;;;;;;;;4991160;28;20238;-32
2022/07/07 01:58:37;;;;;;;2.00;1.40;;;;;;;;;;4999885;28;20210;-32
2022/07/07 02:01:04;;;;;;;1.43;1.20;;;;;;;;;;5001941;28;20234;-34
2022/07/07 02:03:31;;;;;;;2.20;1.30;;;;;;;;;;4995368;28;20221;-35
2022/07/07 02:05:58;;;;;;;1.87;1.50;;;;;;;;;;5005510;28;20438;-35
2022/07/07 02:08:25;;;;;;;1.83;1.23;;;;;;;;;;5010040;28;20203;-36
2022/07/07 02:13:39;;;;;;;1.33;1.23;;;;;;;;;;5004010;28;20222;-34
2022/07/07 02:16:06;;;;;;;4.10;1.60;;;;;;;;;;4998290;28;20205;-32
2022/07/07 02:18:35;;;;;;;5.43;1.60;;;;;;;;;;4991206;28;20209;-33
2022/07/07 02:21:02;;;;;;;2.23;1.40;;;;;;;;;;4998411;28;20256;-33
2022/07/07 02:23:30;;;;;;;1.50;1.40;;;;;;;;;;5010433;28;20208;-32
2022/07/07 02:25:57;;;;;;;3.13;1.70;;;;;;;;;;5011572;28;20208;-33
2022/07/07 02:28:25;;;;;;;1.33;1.23;;;;;;;;;;5000316;28;20799;-33
2022/07/07 02:30:54;;;;;;;1.87;1.30;;;;;;;;;;5003772;28;20201;-36
2022/07/07 02:33:21;;;;;;;1.80;1.30;;;;;;;;;;5008706;28;20805;-28
2022/07/07 02:35:49;;;;;;;2.60;1.73;;;;;;;;;;5000898;28;20205;-34
2022/07/07 02:38:16;;;;;;;2.70;2.40;;;;;;;;;;5002263;28;20202;-32
2022/07/07 02:40:43;;;;;;;3.10;1.63;;;;;;;;;;5011805;28;20229;-37
2022/07/07 02:43:12;;;;;;;2.37;1.30;;;;;;;;;;5007716;28;20211;-33
2022/07/07 02:45:40;;;;;;;2.77;1.63;;;;;;;;;;5002578;28;20216;-30
2022/07/07 02:48:09;;;;;;;1.60;1.50;;;;;;;;;;5011244;28;20274;-31
2022/07/07 02:50:36;;;;;;;1.50;1.40;;;;;;;;;;4998033;28;20615;-32
2022/07/07 02:53:04;;;;;;;2.63;1.60;;;;;;;;;;5001922;28;20208;-34
2022/07/07 02:55:31;;;;;;;1.53;1.43;;;;;;;;;;4994167;28;20248;-34
2022/07/07 02:57:59;;;;;;;2.47;1.60;;;;;;;;;;4995386;28;20227;-32
2022/07/07 03:00:26;;;;;;;2.30;1.60;;;;;;;;;;5002857;28;20256;-36
2022/07/07 03:02:53;;;;;;;1.90;1.23;;;;;;;;;;4996805;28;20205;-35
2022/07/07 03:05:23;;;;;;;2.53;1.80;;;;;;;;;;4999653;28;20300;-33
2022/07/07 03:07:50;;;;;;;1.60;1.50;;;;;;;;;;5005287;28;20545;-31
2022/07/07 03:10:17;;;;;;;2.90;1.70;;;;;;;;;;4993993;28;20206;-35
2022/07/07 03:12:44;;;;;;;2.87;1.70;;;;;;;;;;4995585;28;20213;-31
2022/07/07 03:15:12;;;;;;;4.33;1.97;;;;;;;;;;5006678;28;20659;-34
2022/07/07 03:17:42;;;;;;;3.47;1.53;;;;;;;;;;5006781;28;20227;-34
2022/07/07 03:20:10;;;;;;;1.60;1.50;;;;;;;;;;5001435;28;20238;-33
2022/07/07 03:22:38;;;;;;;1.53;1.23;;;;;;;;;;5013702;28;20257;-35
2022/07/07 03:25:06;;;;;;;2.60;1.60;;;;;;;;;;4994702;28;20215;-34
2022/07/07 03:27:34;;;;;;;1.67;1.57;;;;;;;;;;4995877;28;20239;-33
2022/07/07 03:30:01;;;;;;;1.50;1.37;;;;;;;;;;5002765;28;20216;-33
2022/07/07 03:32:28;;;;;;;5.27;1.57;;;;;;;;;;4996141;28;20202;-33
2022/07/07 03:37:24;;;;;;;2.27;1.50;;;;;;;;;;5018115;28;20232;-40
2022/07/07 03:39:53;;;;;;;2.67;1.70;;;;;;;;;;5031959;28;20297;-46
2022/07/07 03:42:20;;;;;;;1.70;1.60;;;;;;;;;;5028205;28;20219;-42
2022/07/07 03:44:47;;;;;;;2.73;1.37;;;;;;;;;;5031675;28;20204;-44
2022/07/07 03:47:14;;;;;;;2.33;1.57;;;;;;;;;;5031508;28;20245;-41
2022/07/07 03:49:41;;;;;;;2.50;1.70;;;;;;;;;;5019427;28;20209;-43
2022/07/07 03:52:09;;;;;;;4.43;1.73;;;;;;;;;;5022788;28;20201;-47
2022/07/07 03:54:36;;;;;;;2.40;1.60;;;;;;;;;;5018372;28;20654;-45
2022/07/07 03:57:05;;;;;;;1.90;1.50;;;;;;;;;;5014995;28;20231;-42
2022/07/07 03:59:32;;;;;;;1.43;1.33;;;;;;;;;;5019715;28;20222;-41
2022/07/07 04:01:59;;;;;;;2.30;1.60;;;;;;;;;;5033183;28;20235;-43
2022/07/07 04:04:26;;;;;;;1.77;1.67;;;;;;;;;;5028028;28;20234;-43
2022/07/07 04:06:53;;;;;;;1.93;1.57;;;;;;;;;;5027704;28;20224;-41
2022/07/07 04:09:20;;;;;;;1.50;1.40;;;;;;;;;;5034345;28;20230;-41
2022/07/07 04:11:47;;;;;;;2.07;1.87;;;;;;;;;;5034380;28;20203;-44
2022/07/07 04:14:16;;;;;;;4.03;1.77;;;;;;;;;;5029099;28;20208;-44
2022/07/07 04:16:43;;;;;;;4.00;1.50;;;;;;;;;;5027994;28;20234;-44
2022/07/07 04:19:10;;;;;;;2.63;1.60;;;;;;;;;;5017082;28;20216;-41
2022/07/07 04:21:37;;;;;;;2.00;1.63;;;;;;;;;;5033365;28;20234;-45
2022/07/07 04:24:05;;;;;;;4.10;1.60;;;;;;;;;;5033200;28;20203;-46
2022/07/07 04:26:32;;;;;;;4.07;1.63;;;;;;;;;;5029521;28;20229;-42
2022/07/07 04:28:59;;;;;;;4.23;2.00;;;;;;;;;;5032770;28;20208;-40
2022/07/07 04:31:27;;;;;;;2.70;1.50;;;;;;;;;;5024938;28;20198;-43
2022/07/07 04:33:54;;;;;;;2.43;1.50;;;;;;;;;;5029498;28;20203;-42
2022/07/07 04:36:21;;;;;;;3.07;1.53;;;;;;;;;;5020394;28;20232;-35
2022/07/07 04:38:49;;;;;;;1.60;1.50;;;;;;;;;;5033192;28;20322;-39
2022/07/07 04:41:16;;;;;;;2.07;1.43;;;;;;;;;;5033857;28;20231;-39
2022/07/07 04:43:43;;;;;;;4.57;1.70;;;;;;;;;;5023109;28;20215;-41
2022/07/07 04:46:10;;;;;;;3.40;1.40;;;;;;;;;;5029420;28;20223;-44
2022/07/07 04:48:38;;;;;;;1.67;1.57;;;;;;;;;;5020179;28;20214;-41
2022/07/07 04:51:06;;;;;;;2.13;1.73;;;;;;;;;;5031631;28;20206;-46
2022/07/07 04:53:33;;;;;;;1.90;1.50;;;;;;;;;;5032737;28;20203;-39
2022/07/07 04:56:00;;;;;;;2.97;1.50;;;;;;;;;;5026720;28;20216;-46
2022/07/07 04:58:27;;;;;;;2.53;1.30;;;;;;;;;;5019971;28;20211;-42
2022/07/07 05:00:54;;;;;;;1.70;1.60;;;;;;;;;;5023502;28;20223;-42
2022/07/07 05:03:22;;;;;;;4.40;1.60;;;;;;;;;;5013335;28;20509;-42
2022/07/07 05:05:50;;;;;;;2.00;1.70;;;;;;;;;;5017515;28;20203;-43
2022/07/07 05:08:17;;;;;;;6.73;1.60;;;;;;;;;;5032887;28;20199;-40
2022/07/07 05:10:45;;;;;;;1.57;1.33;;;;;;;;;;5033764;28;20234;-39
2022/07/07 05:13:12;;;;;;;4.67;1.40;;;;;;;;;;5028195;28;20230;-41
2022/07/07 05:15:39;;;;;;;3.10;1.30;;;;;;;;;;5022779;28;20210;-37
2022/07/07 05:18:09;;;;;;;2.00;1.40;;;;;;;;;;5031230;28;20381;-43
2022/07/07 05:20:36;;;;;;;3.03;1.20;;;;;;;;;;5027042;28;20401;-38
2022/07/07 05:23:05;;;;;;;2.77;1.50;;;;;;;;;;5031654;28;20201;-43
2022/07/07 05:25:32;;;;;;;1.90;1.40;;;;;;;;;;5017141;28;20205;-45
2022/07/07 05:28:02;;;;;;;1.70;1.60;;;;;;;;;;5012681;28;20315;-39
2022/07/07 05:30:29;;;;;;;2.03;1.47;;;;;;;;;;5026737;28;20200;-44
2022/07/07 05:32:56;;;;;;;2.70;1.67;;;;;;;;;;5031421;28;20230;-43
2022/07/07 05:35:24;;;;;;;2.10;1.50;;;;;;;;;;5023474;28;20223;-42
2022/07/07 05:37:51;;;;;;;3.07;1.57;;;;;;;;;;5016493;28;20236;-44
2022/07/07 05:40:19;;;;;;;1.50;1.40;;;;;;;;;;5033550;28;20214;-42
2022/07/07 05:42:47;;;;;;;2.90;1.80;;;;;;;;;;5024694;28;20598;-43
2022/07/07 05:45:14;;;;;;;2.67;1.70;;;;;;;;;;5027699;28;20212;-41
2022/07/07 05:47:41;;;;;;;1.97;1.43;;;;;;;;;;5026411;28;20229;-38
2022/07/07 05:50:09;;;;;;;4.40;1.40;;;;;;;;;;5018330;28;20213;-43
2022/07/07 05:52:36;;;;;;;1.30;1.20;;;;;;;;;;5024791;28;20569;-41
2022/07/07 05:55:03;;;;;;;1.90;1.50;;;;;;;;;;5031201;28;20212;-41
2022/07/07 05:57:32;;;;;;;2.50;1.60;;;;;;;;;;5025361;28;20240;-41
2022/07/07 06:00:00;;;;;;;2.53;1.50;;;;;;;;;;5027654;28;20258;-41
2022/07/07 06:02:27;;;;;;;3.70;1.80;;;;;;;;;;5025691;28;20231;-46
2022/07/07 06:04:54;;;;;;;2.00;1.40;;;;;;;;;;5019243;28;20215;-43
2022/07/07 06:07:21;;;;;;;2.33;1.30;;;;;;;;;;5025928;28;20239;-41
2022/07/07 06:09:48;;;;;;;2.50;1.77;;;;;;;;;;5032202;28;20441;-42
2022/07/07 06:12:16;;;;;;;1.70;1.60;;;;;;;;;;5026775;28;20214;-42
2022/07/07 06:14:44;;;;;;;1.97;1.20;;;;;;;;;;5023106;28;20209;-41
2022/07/07 06:17:11;;;;;;;1.37;1.27;;;;;;;;;;5012593;28;20229;-42
2022/07/07 06:19:38;;;;;;;7.53;1.67;;;;;;;;;;5013573;28;20213;-44
2022/07/07 06:22:06;;;;;;;2.83;1.30;;;;;;;;;;5024100;28;20236;-37
2022/07/07 06:24:33;;;;;;;1.87;1.40;;;;;;;;;;5031713;28;20208;-40
2022/07/07 06:27:00;;;;;;;1.73;1.53;;;;;;;;;;5024996;28;20696;-45
2022/07/07 06:29:27;;;;;;;3.60;2.00;;;;;;;;;;5021100;28;20218;-40
2022/07/07 06:31:56;;;;;;;6.83;1.87;;;;;;;;;;5029780;28;20206;-39
2022/07/07 06:34:23;;;;;;;2.27;1.40;;;;;;;;;;5021685;28;20217;-39
2022/07/07 06:36:50;;;;;;;1.50;1.40;;;;;;;;;;5022052;28;20330;-42
2022/07/07 06:39:17;;;;;;;4.57;1.70;;;;;;;;;;5016333;28;20229;-42
2022/07/07 06:41:45;;;;;;;4.93;1.40;;;;;;;;;;5023899;28;20312;-42
2022/07/07 06:44:12;;;;;;;4.73;1.67;;;;;;;;;;5023985;28;20198;-45
2022/07/07 06:46:40;;;;;;;3.60;1.37;;;;;;;;;;5031405;28;20279;-38
2022/07/07 06:49:08;;;;;;;5.30;1.60;;;;;;;;;;5026399;28;20829;-40
2022/07/07 06:51:36;;;;;;;3.53;1.70;;;;;;;;;;5024945;28;20209;-40
2022/07/07 06:54:03;;;;;;;4.72;1.30;;;;;;;;;;5031078;28;20210;-40
2022/07/07 06:56:30;;;;;;;2.00;1.48;;;;;;;;;;5017945;28;20234;-42
2022/07/07 06:58:57;;;;;;;2.90;1.38;;;;;;;;;;5021813;28;20642;-45
2022/07/07 07:01:24;;;;;;;2.75;1.25;;;;;;;;;;5026038;28;20303;-42
2022/07/07 07:03:51;;;;;;;1.35;1.25;;;;;;;;;;5010558;28;20207;-38
2022/07/07 07:06:20;;;;;;;3.90;1.50;;;;;;;;;;5024578;28;20243;-40
2022/07/07 07:08:48;;;;;;;2.00;1.27;;;;;;;;;;5031217;28;20740;-37
2022/07/07 07:11:15;;;;;;;4.05;1.50;;;;;;;;;;5027719;28;20209;-44
2022/07/07 07:13:43;;;;;;;1.73;1.42;;;;;;;;;;5019893;28;20205;-43
2022/07/07 07:16:10;;;;;;;1.85;1.27;;;;;;;;;;5019447;28;20228;-40
2022/07/07 07:18:38;;;;;;;3.22;1.70;;;;;;;;;;5012616;28;20209;-40
2022/07/07 07:21:05;;;;;;;6.07;1.42;;;;;;;;;;5030034;28;20302;-44
2022/07/07 07:23:33;;;;;;;5.30;1.27;;;;;;;;;;5031798;28;20238;-39
2022/07/07 07:26:01;;;;;;;3.95;1.50;;;;;;;;;;5032824;28;20218;-43
2022/07/07 07:28:28;;;;;;;4.47;1.60;;;;;;;;;;5032467;28;20237;-38
2022/07/07 07:30:55;;;;;;;4.80;1.63;;;;;;;;;;5036396;28;20210;-43
2022/07/07 07:33:22;;;;;;;2.35;1.40;;;;;;;;;;5024712;28;20207;-44
2022/07/07 07:35:50;;;;;;;4.07;1.75;;;;;;;;;;5033356;28;20397;-42
2022/07/07 07:38:17;;;;;;;3.97;1.57;;;;;;;;;;5035924;28;20207;-43
2022/07/07 07:40:45;;;;;;;3.77;1.50;;;;;;;;;;5035909;28;20285;-40
2022/07/07 07:43:13;;;;;;;2.70;1.20;;;;;;;;;;5027343;28;20234;-44
2022/07/07 07:45:40;;;;;;;2.87;1.70;;;;;;;;;;5033493;28;20561;-43
2022/07/07 07:48:07;;;;;;;4.67;1.77;;;;;;;;;;5016211;28;20281;-43
2022/07/07 07:50:34;;;;;;;2.50;1.30;;;;;;;;;;5021056;28;20306;-42
2022/07/07 07:53:05;;;;;;;4.43;1.40;;;;;;;;;;5032882;28;20210;-39
2022/07/07 07:55:32;;;;;;;1.33;1.10;;;;;;;;;;5035186;28;20206;-43
2022/07/07 07:58:01;;;;;;;2.00;1.30;;;;;;;;;;5032429;28;20242;-38
2022/07/07 08:00:28;;;;;;;2.23;1.30;;;;;;;;;;5030545;28;20214;-40
2022/07/07 08:02:55;;;;;;;2.97;1.37;;;;;;;;;;5034892;28;20224;-40
2022/07/07 08:05:22;;;;;;;2.53;1.80;;;;;;;;;;5021593;28;20224;-46
2022/07/07 08:07:50;;;;;;;2.10;1.37;;;;;;;;;;5030706;28;20230;-38
2022/07/07 08:10:17;;;;;;;1.67;1.30;;;;;;;;;;5034695;28;20237;-42
2022/07/07 08:12:45;;;;;;;4.77;1.80;;;;;;;;;;5029582;28;20212;-41
2022/07/07 08:15:14;;;;;;;1.80;1.40;;;;;;;;;;5025557;28;20563;-45
2022/07/07 08:17:42;;;;;;;3.37;1.40;;;;;;;;;;5034077;28;20233;-41
2022/07/07 08:20:09;;;;;;;1.43;1.20;;;;;;;;;;5023161;28;20211;-42
2022/07/07 08:22:37;;;;;;;2.00;1.30;;;;;;;;;;5028656;28;20214;-43
2022/07/07 08:25:05;;;;;;;1.10;1.10;;;;;;;;;;5034405;28;20210;-38
2022/07/07 08:27:34;;;;;;;3.90;1.50;;;;;;;;;;5023676;28;20242;-39
2022/07/07 08:30:05;;;;;;;2.13;1.47;;;;;;;;;;5026526;28;20225;-40
2022/07/07 08:32:34;;;;;;;2.23;1.37;;;;;;;;;;5028343;28;20211;-43
2022/07/07 08:35:01;;;;;;;2.83;1.47;;;;;;;;;;5026455;28;20210;-41
2022/07/07 08:37:28;;;;;;;2.93;1.40;;;;;;;;;;5028137;28;20308;-41
2022/07/07 08:39:56;;;;;;;2.63;1.30;;;;;;;;;;5033840;28;20209;-43
2022/07/07 08:42:23;;;;;;;2.97;1.40;;;;;;;;;;5029187;28;20230;-41
2022/07/07 08:44:50;;;;;;;2.97;2.03;;;;;;;;;;5013598;28;20206;-42
2022/07/07 08:47:18;;;;;;;6.30;1.70;;;;;;;;;;5019830;28;20564;-41
2022/07/07 08:49:46;;;;;;;3.33;1.60;;;;;;;;;;5024045;28;20296;-41
2022/07/07 08:52:14;;;;;;;2.77;1.30;;;;;;;;;;5032285;28;20294;-43
2022/07/07 08:54:43;;;;;;;2.27;1.60;;;;;;;;;;5028300;28;20194;-41
2022/07/07 08:57:10;;;;;;;3.03;1.60;;;;;;;;;;5018892;28;20254;-43
2022/07/07 08:59:37;;;;;;;2.23;1.60;;;;;;;;;;5022714;28;20213;-42
2022/07/07 09:02:04;;;;;;;4.33;1.57;;;;;;;;;;5027310;28;20392;-42
2022/07/07 09:04:32;;;;;;;1.83;1.53;;;;;;;;;;5023618;28;20297;-41
2022/07/07 09:07:01;;;;;;;4.67;1.93;;;;;;;;;;5026454;28;20225;-38
2022/07/07 09:09:30;;;;;;;4.30;1.50;;;;;;;;;;5022636;28;20205;-41
2022/07/07 09:12:01;;;;;;;1.60;1.27;;;;;;;;;;5021928;28;20648;-38
2022/07/07 09:14:35;;;;;;;2.10;1.30;;;;;;;;;;5023921;28;20205;-42
2022/07/07 09:17:02;;;;;;;2.27;1.53;;;;;;;;;;5022365;28;20261;-36
2022/07/07 09:19:29;;;;;;;1.67;1.57;;;;;;;;;;5021654;28;20214;-39
2022/07/07 09:21:56;;;;;;;1.50;1.30;;;;;;;;;;5026155;28;20208;-38
2022/07/07 09:24:25;;;;;;;1.93;1.50;;;;;;;;;;5029450;28;20201;-45
2022/07/07 09:26:55;;;;;;;2.47;1.50;;;;;;;;;;5021281;28;20232;-39
2022/07/07 09:29:23;;;;;;;2.70;1.40;;;;;;;;;;5023559;28;20216;-41
2022/07/07 09:31:57;;;;;;;1.30;1.20;;;;;;;;;;5021607;28;20209;-43
2022/07/07 09:39:43;;;;;;;4.83;1.80;;;;;;;;;;5012950;28;20249;-39
2022/07/07 09:42:20;;;;;;;1.93;1.40;;;;;;;;;;5012933;28;20226;-43
2022/07/07 09:44:48;;;;;;;1.40;1.30;;;;;;;;;;5028270;28;20212;-40
2022/07/07 09:47:15;;;;;;;1.60;1.50;;;;;;;;;;5025886;28;20221;-39
2022/07/07 09:49:43;;;;;;;5.33;1.60;;;;;;;;;;5019927;28;20209;-37
2022/07/07 09:52:17;;;;;;;6.37;1.90;;;;;;;;;;5020950;28;20259;-39
2022/07/07 09:54:49;;;;;;;2.73;1.47;;;;;;;;;;5026156;28;20209;-38
2022/07/07 09:57:16;;;;;;;4.90;1.90;;;;;;;;;;5012134;28;20261;-34
2022/07/07 09:59:43;;;;;;;3.63;1.40;;;;;;;;;;5012695;28;20205;-38
2022/07/07 10:02:14;;;;;;;3.00;1.40;;;;;;;;;;5020297;28;20197;-41
2022/07/07 10:04:43;;;;;;;1.60;1.50;;;;;;;;;;5020157;28;20212;-34
2022/07/07 10:07:11;;;;;;;1.70;1.57;;;;;;;;;;5029688;28;20227;-40
2022/07/07 10:09:39;;;;;;;1.43;1.20;;;;;;;;;;5013184;28;20216;-40
2022/07/07 10:12:09;;;;;;;1.67;0.87;;;;;;;;;;5017532;28;20209;-33
2022/07/07 10:14:37;;;;;;;1.70;1.30;;;;;;;;;;5018406;28;20217;-34
2022/07/07 10:17:04;;;;;;;2.17;1.17;;;;;;;;;;5022812;28;20228;-39
2022/07/07 10:19:32;;;;;;;1.40;1.30;;;;;;;;;;5024565;28;20216;-37
2022/07/07 10:21:59;;;;;;;3.20;1.40;;;;;;;;;;5025850;28;20216;-43
2022/07/07 10:24:29;;;;;;;1.30;1.20;;;;;;;;;;5027308;28;20292;-38
2022/07/07 10:26:57;;;;;;;2.83;1.30;;;;;;;;;;5020003;28;20244;-38
2022/07/07 10:29:41;;;;;;;1.30;1.20;;;;;;;;;;5026200;28;20206;-38
2022/07/07 10:32:09;;;;;;;5.10;1.20;;;;;;;;;;5024705;28;20214;-39
2022/07/07 10:34:37;;;;;;;2.23;1.20;;;;;;;;;;5020274;28;20205;-33
2022/07/07 10:37:06;;;;;;;2.60;1.47;;;;;;;;;;5027209;28;20229;-35
2022/07/07 10:39:35;;;;;;;1.20;1.10;;;;;;;;;;5016659;28;20206;-33
2022/07/07 10:42:07;;;;;;;1.90;1.00;;;;;;;;;;5018128;28;20200;-36
2022/07/07 10:44:35;;;;;;;1.20;1.10;;;;;;;;;;5018973;28;20202;-35
2022/07/07 10:47:05;;;;;;;1.43;1.10;;;;;;;;;;5021672;28;20228;-39
2022/07/07 10:49:39;;;;;;;2.10;1.23;;;;;;;;;;5019325;28;20294;-42
2022/07/07 10:52:11;;;;;;;3.17;1.03;;;;;;;;;;5019529;28;20208;-38
2022/07/07 10:54:39;;;;;;;1.60;1.30;;;;;;;;;;5031993;28;20207;-37
2022/07/07 10:57:14;;;;;;;3.03;1.40;;;;;;;;;;5016003;28;20228;-38
2022/07/07 11:00:00;;;;;;;1.23;1.13;;;;;;;;;;5023563;28;20213;-40
2022/07/07 11:02:31;;;;;;;1.60;1.50;;;;;;;;;;5011666;28;20450;-40
2022/07/07 11:04:59;;;;;;;1.43;1.33;;;;;;;;;;5021667;28;20216;-39
2022/07/07 11:07:26;;;;;;;1.57;1.40;;;;;;;;;;5022238;28;20237;-38
2022/07/07 11:09:58;;;;;;;1.80;1.30;;;;;;;;;;5015815;28;20205;-38
2022/07/07 11:12:35;;;;;;;1.40;1.40;;;;;;;;;;5019399;28;20262;-40
2022/07/07 11:15:17;;;;;;;1.37;1.20;;;;;;;;;;5031198;28;20205;-34
2022/07/07 11:17:45;;;;;;;1.63;1.40;;;;;;;;;;5020499;28;20308;-40
2022/07/07 11:20:15;;;;;;;1.40;1.30;;;;;;;;;;5023807;28;20200;-38
2022/07/07 11:22:45;;;;;;;4.00;1.50;;;;;;;;;;5033984;28;20220;-38
2022/07/07 11:25:13;;;;;;;1.37;1.23;;;;;;;;;;5018123;28;20201;-40
2022/07/07 11:27:40;;;;;;;2.77;1.33;;;;;;;;;;5027180;28;20239;-33
2022/07/07 11:30:11;;;;;;;4.07;1.53;;;;;;;;;;5031766;28;20215;-36
2022/07/07 11:32:38;;;;;;;4.30;1.43;;;;;;;;;;5021358;28;20196;-35
2022/07/07 11:35:07;;;;;;;2.77;2.07;;;;;;;;;;5020730;28;20253;-35
2022/07/07 11:37:37;;;;;;;1.37;1.27;;;;;;;;;;5029162;28;20219;-39
2022/07/07 11:40:04;;;;;;;1.87;1.67;;;;;;;;;;5034669;28;20204;-33
2022/07/07 11:42:35;;;;;;;2.83;1.40;;;;;;;;;;5031805;28;20200;-37
2022/07/07 11:45:02;;;;;;;1.53;1.33;;;;;;;;;;5024521;28;20211;-37
2022/07/07 11:47:34;;;;;;;4.97;1.93;;;;;;;;;;5015015;28;20237;-37
2022/07/07 11:50:01;;;;;;;1.50;1.40;;;;;;;;;;5025393;28;20209;-36
2022/07/07 11:52:30;;;;;;;3.40;1.70;;;;;;;;;;5027822;28;20216;-36
2022/07/07 11:54:57;;;;;;;3.27;1.60;;;;;;;;;;5034399;28;20209;-37
2022/07/07 11:57:28;;;;;;;1.60;1.50;;;;;;;;;;5018432;28;20230;-43
2022/07/07 11:59:55;;;;;;;1.13;1.10;;;;;;;;;;5030462;28;20233;-41
2022/07/07 12:02:23;;;;;;;3.07;1.30;;;;;;;;;;5014938;28;20214;-37
2022/07/07 12:04:54;;;;;;;1.50;1.30;;;;;;;;;;5017499;28;20333;-37
2022/07/07 12:07:22;;;;;;;13.70;1.63;;;;;;;;;;5014076;28;20227;-32
2022/07/07 12:09:50;;;;;;;1.27;1.03;;;;;;;;;;5014117;28;20219;-33
2022/07/07 12:12:18;;;;;;;1.37;1.20;;;;;;;;;;5015965;28;20209;-40
2022/07/07 12:14:46;;;;;;;5.93;1.50;;;;;;;;;;5016323;28;20258;-37
2022/07/07 12:17:13;;;;;;;3.43;1.13;;;;;;;;;;5016432;28;20317;-38
2022/07/07 12:19:47;;;;;;;1.67;1.03;;;;;;;;;;5029700;28;20702;-38
2022/07/07 12:22:14;;;;;;;1.80;1.37;;;;;;;;;;5014798;28;20224;-37
2022/07/07 12:24:41;;;;;;;2.30;1.47;;;;;;;;;;5015131;28;20222;-34
2022/07/07 12:27:18;;;;;;;3.00;1.40;;;;;;;;;;5016007;28;20236;-38
2022/07/07 12:29:59;;;;;;;1.23;1.13;;;;;;;;;;5014408;28;20475;-39
2022/07/07 12:32:26;;;;;;;1.17;1.07;;;;;;;;;;5027010;28;20206;-36
2022/07/07 12:34:53;;;;;;;2.87;1.20;;;;;;;;;;5028025;28;20221;-40
2022/07/07 12:37:20;;;;;;;2.77;1.27;;;;;;;;;;5017737;28;20232;-36
2022/07/07 12:39:51;;;;;;;1.70;1.10;;;;;;;;;;5017614;28;20264;-34
2022/07/07 12:42:26;;;;;;;1.50;1.23;;;;;;;;;;5020912;28;20215;-35
2022/07/07 12:45:09;;;;;;;2.53;1.53;;;;;;;;;;5013941;28;20218;-39
2022/07/07 12:47:36;;;;;;;2.03;1.47;;;;;;;;;;5033389;28;20229;-40
2022/07/07 12:50:03;;;;;;;2.67;1.20;;;;;;;;;;5017461;28;20296;-42
2022/07/07 12:52:30;;;;;;;3.30;1.03;;;;;;;;;;5027300;28;20210;-40
2022/07/07 12:55:06;;;;;;;1.43;1.13;;;;;;;;;;5033324;28;20217;-35
2022/07/07 12:57:35;;;;;;;2.40;1.50;;;;;;;;;;5035058;28;20222;-36
2022/07/07 13:00:02;;;;;;;1.57;1.20;;;;;;;;;;5029340;28;20269;-39
2022/07/07 13:02:29;;;;;;;3.80;1.30;;;;;;;;;;5025836;28;20233;-38
2022/07/07 13:04:56;;;;;;;2.17;1.27;;;;;;;;;;5023591;28;20237;-43
2022/07/07 13:07:23;;;;;;;0.83;0.83;;;;;;;;;;5026381;28;20225;-34
2022/07/07 13:09:51;;;;;;;3.60;1.43;;;;;;;;;;5016737;28;20207;-39
2022/07/07 13:12:18;;;;;;;1.40;1.30;;;;;;;;;;5017848;28;20214;-35
2022/07/07 13:14:47;;;;;;;1.17;1.07;;;;;;;;;;5031475;28;20214;-36
2022/07/07 13:17:15;;;;;;;1.73;1.40;;;;;;;;;;5029101;28;20250;-35
2022/07/07 13:19:42;;;;;;;1.53;1.20;;;;;;;;;;5014547;28;20215;-36
2022/07/07 13:22:09;;;;;;;2.10;1.43;;;;;;;;;;5020675;28;20217;-40
2022/07/07 13:24:36;;;;;;;3.10;1.43;;;;;;;;;;5026919;28;20222;-34
2022/07/07 13:27:06;;;;;;;7.23;1.30;;;;;;;;;;5027444;28;20226;-35
2022/07/07 13:29:34;;;;;;;4.20;1.70;;;;;;;;;;5012764;28;20293;-35
2022/07/07 13:32:02;;;;;;;1.70;1.60;;;;;;;;;;5015160;28;20207;-35
2022/07/07 13:34:29;;;;;;;2.60;1.60;;;;;;;;;;5019969;28;20229;-35
2022/07/07 13:36:57;;;;;;;2.63;1.63;;;;;;;;;;5015687;28;20234;-43
2022/07/07 13:39:24;;;;;;;3.37;1.53;;;;;;;;;;5026558;28;20288;-37
2022/07/07 13:41:52;;;;;;;2.23;1.70;;;;;;;;;;5032763;28;20206;-36
2022/07/07 13:44:19;;;;;;;5.57;1.50;;;;;;;;;;5021020;28;20221;-41
2022/07/07 13:46:47;;;;;;;1.83;1.40;;;;;;;;;;5024406;28;20225;-37
2022/07/07 13:49:15;;;;;;;1.87;1.30;;;;;;;;;;5027112;28;20211;-38
2022/07/07 13:51:42;;;;;;;3.97;1.60;;;;;;;;;;5020845;28;20213;-41
2022/07/07 13:54:10;;;;;;;1.53;1.30;;;;;;;;;;5031138;28;20219;-36
2022/07/07 13:56:37;;;;;;;1.80;1.43;;;;;;;;;;5032166;28;20235;-39
2022/07/07 13:59:04;;;;;;;2.17;1.70;;;;;;;;;;5020624;28;20236;-32
2022/07/07 14:01:31;;;;;;;6.80;2.07;;;;;;;;;;5026411;28;20199;-39
2022/07/07 14:03:58;;;;;;;1.40;1.30;;;;;;;;;;5022514;28;20222;-34
2022/07/07 14:06:27;;;;;;;1.17;1.10;;;;;;;;;;5025870;28;20325;-38
2022/07/07 14:08:54;;;;;;;2.03;1.40;;;;;;;;;;5012226;28;20253;-37
2022/07/07 14:11:21;;;;;;;1.93;1.40;;;;;;;;;;5012385;28;20203;-37
2022/07/07 14:13:48;;;;;;;1.80;1.53;;;;;;;;;;5024502;28;20202;-41
2022/07/07 14:16:15;;;;;;;1.50;1.10;;;;;;;;;;5022586;28;20227;-38
2022/07/07 14:18:42;;;;;;;1.40;0.83;;;;;;;;;;5013044;28;20277;-38
2022/07/07 14:21:10;;;;;;;2.43;0.97;;;;;;;;;;5022950;28;20217;-37
2022/07/07 14:23:38;;;;;;;0.87;0.87;;;;;;;;;;5023848;28;20226;-34
2022/07/07 14:26:06;;;;;;;0.87;0.87;;;;;;;;;;5020236;28;20220;-40
2022/07/07 14:28:33;;;;;;;1.40;1.00;;;;;;;;;;5021604;28;20217;-35
2022/07/07 14:31:01;;;;;;;0.83;0.83;;;;;;;;;;5011837;28;20221;-37
2022/07/07 14:33:28;;;;;;;1.20;1.10;;;;;;;;;;5021924;28;20210;-35
2022/07/07 14:35:55;;;;;;;1.10;1.10;;;;;;;;;;5019606;28;20228;-36
2022/07/07 14:38:23;;;;;;;1.20;1.10;;;;;;;;;;5023595;28;20203;-39
2022/07/07 14:40:51;;;;;;;1.10;1.03;;;;;;;;;;5016466;28;20217;-39
2022/07/07 14:43:18;;;;;;;3.13;0.70;;;;;;;;;;5019529;28;20244;-39
2022/07/07 14:45:46;;;;;;;0.77;0.77;;;;;;;;;;5034875;28;20275;-42
2022/07/07 14:48:13;;;;;;;1.83;1.00;;;;;;;;;;5014625;28;20267;-37
2022/07/07 14:50:40;;;;;;;1.03;0.90;;;;;;;;;;5015035;28;20214;-41
2022/07/07 14:53:08;;;;;;;2.30;0.70;;;;;;;;;;5032463;28;20212;-34
2022/07/07 14:55:35;;;;;;;1.03;0.73;;;;;;;;;;5016460;28;20273;-40
2022/07/07 14:58:03;;;;;;;1.30;1.00;;;;;;;;;;5021101;28;20225;-33